createdAt,value
2023-02-16T00:00:34.650Z,51.215923
2023-02-16T00:01:34.614Z,51.216194
2023-02-16T00:02:34.712Z,51.216423
2023-02-16T00:03:34.729Z,51.216362
2023-02-16T00:04:34.675Z,51.216183
2023-02-16T00:05:34.592Z,51.216225
2023-02-16T00:06:34.606Z,51.216019
2023-02-16T00:07:34.582Z,51.216164
2023-02-16T00:08:34.606Z,51.216068
2023-02-16T00:09:34.563Z,51.216114
2023-02-16T00:10:34.560Z,51.216042
2023-02-16T00:11:34.576Z,51.216145
2023-02-16T00:12:34.546Z,51.216339
2023-02-16T00:13:34.581Z,51.216137
2023-02-16T00:14:34.568Z,51.216148
2023-02-16T00:15:34.611Z,51.216103
2023-02-16T00:16:34.525Z,51.216053
2023-02-16T00:17:34.514Z,51.215706
2023-02-16T00:18:34.531Z,51.216076
2023-02-16T00:19:34.511Z,51.216236
2023-02-16T00:20:34.489Z,51.216110
2023-02-16T00:21:34.490Z,51.216408
2023-02-16T00:22:34.472Z,51.216446
2023-02-16T00:23:34.497Z,51.216560
2023-02-16T00:24:34.468Z,51.216476
2023-02-16T00:25:34.474Z,51.215965
2023-02-16T00:26:34.462Z,51.216038
2023-02-16T00:27:34.458Z,51.216373
2023-02-16T00:28:34.450Z,51.216267
2023-02-16T00:29:34.469Z,51.215843
2023-02-16T00:30:34.488Z,51.215881
2023-02-16T00:31:34.617Z,51.215874
2023-02-16T00:32:34.424Z,51.215725
2023-02-16T00:33:34.416Z,51.215961
2023-02-16T00:34:34.456Z,51.216286
2023-02-16T00:35:34.406Z,51.216114
2023-02-16T00:36:34.404Z,51.216072
2023-02-16T00:37:34.380Z,51.216141
2023-02-16T00:38:34.389Z,51.215969
2023-02-16T00:39:34.406Z,51.215889
2023-02-16T00:40:34.394Z,51.216042
2023-02-16T00:41:34.367Z,51.215862
2023-02-16T00:42:34.377Z,51.215771
2023-02-16T00:43:34.365Z,51.215862
2023-02-16T00:44:34.384Z,51.215786
2023-02-16T00:45:34.348Z,51.215805
2023-02-16T00:46:34.441Z,51.215519
2023-02-16T00:47:34.332Z,51.214745
2023-02-16T00:48:34.336Z,51.214355
2023-02-16T00:49:34.320Z,51.214203
2023-02-16T00:50:34.323Z,51.214642
2023-02-16T00:51:34.287Z,51.215073
2023-02-16T00:52:35.326Z,51.215309
2023-02-16T00:53:34.361Z,51.215565
2023-02-16T00:54:34.340Z,51.215744
2023-02-16T00:55:34.299Z,51.215794
2023-02-16T00:56:34.272Z,51.215679
2023-02-16T00:57:34.268Z,51.215721
2023-02-16T00:58:34.265Z,51.215904
2023-02-16T00:59:34.260Z,51.215992
2023-02-16T01:00:34.289Z,51.215916
2023-02-16T01:01:34.312Z,51.215816
2023-02-16T01:02:34.235Z,51.215820
2023-02-16T01:03:34.231Z,51.215614
2023-02-16T01:04:34.286Z,51.215672
2023-02-16T01:05:34.254Z,51.215466
2023-02-16T01:06:34.202Z,51.215538
2023-02-16T01:07:34.201Z,51.215870
2023-02-16T01:08:34.205Z,51.216194
2023-02-16T01:09:34.182Z,51.216194
2023-02-16T01:10:34.183Z,51.216084
2023-02-16T01:11:34.187Z,51.216049
2023-02-16T01:12:34.181Z,51.216095
2023-02-16T01:13:34.157Z,51.216339
2023-02-16T01:14:34.164Z,51.216125
2023-02-16T01:15:34.196Z,51.216007
2023-02-16T01:16:34.162Z,51.215923
2023-02-16T01:17:35.138Z,51.216137
2023-02-16T01:18:34.142Z,51.215351
2023-02-16T01:19:34.138Z,51.215530
2023-02-16T01:20:34.132Z,51.216103
2023-02-16T01:21:34.119Z,51.216122
2023-02-16T01:22:34.110Z,51.216042
2023-02-16T01:23:34.110Z,51.215981
2023-02-16T01:24:34.094Z,51.216068
2023-02-16T01:25:34.075Z,51.215630
2023-02-16T01:26:34.089Z,51.215668
2023-02-16T01:27:34.084Z,51.215790
2023-02-16T01:28:34.129Z,51.216068
2023-02-16T01:29:34.062Z,51.216011
2023-02-16T01:30:34.075Z,51.216305
2023-02-16T01:31:34.108Z,51.216354
2023-02-16T01:32:34.067Z,51.216381
2023-02-16T01:33:34.058Z,51.216259
2023-02-16T01:34:34.037Z,51.216331
2023-02-16T01:35:34.061Z,51.216061
2023-02-16T01:36:34.015Z,51.216232
2023-02-16T01:37:34.028Z,51.216091
2023-02-16T01:38:34.012Z,51.216145
2023-02-16T01:39:34.013Z,51.216133
2023-02-16T01:40:34.014Z,51.216167
2023-02-16T01:41:33.985Z,51.216091
2023-02-16T01:42:33.983Z,51.216015
2023-02-16T01:43:33.981Z,51.216072
2023-02-16T01:44:34.025Z,51.216080
2023-02-16T01:45:33.954Z,51.216129
2023-02-16T01:46:33.981Z,51.216072
2023-02-16T01:47:33.929Z,51.216030
2023-02-16T01:48:33.945Z,51.216053
2023-02-16T01:49:33.931Z,51.216099
2023-02-16T01:50:33.923Z,51.216091
2023-02-16T01:51:33.921Z,51.216164
2023-02-16T01:52:33.902Z,51.216038
2023-02-16T01:53:33.905Z,51.216034
2023-02-16T01:54:33.918Z,51.216026
2023-02-16T01:55:33.989Z,51.215981
2023-02-16T01:56:33.877Z,51.216087
2023-02-16T01:57:33.881Z,51.216118
2023-02-16T01:58:33.886Z,51.216167
2023-02-16T01:59:33.881Z,51.216194
2023-02-16T02:00:33.862Z,51.216011
2023-02-16T02:01:33.938Z,51.215916
2023-02-16T02:02:33.872Z,51.215996
2023-02-16T02:03:33.850Z,51.216057
2023-02-16T02:04:33.851Z,51.216003
2023-02-16T02:05:33.828Z,51.216118
2023-02-16T02:06:33.813Z,51.216080
2023-02-16T02:07:33.811Z,51.216110
2023-02-16T02:08:33.825Z,51.216190
2023-02-16T02:09:33.803Z,51.216125
2023-02-16T02:10:33.800Z,51.216106
2023-02-16T02:11:33.801Z,51.216099
2023-02-16T02:12:33.798Z,51.216015
2023-02-16T02:13:33.791Z,51.216084
2023-02-16T02:14:33.778Z,51.216053
2023-02-16T02:15:33.772Z,51.215931
2023-02-16T02:16:33.756Z,51.216026
2023-02-16T02:17:33.756Z,51.216007
2023-02-16T02:18:33.760Z,51.216095
2023-02-16T02:19:33.758Z,51.216007
2023-02-16T02:20:33.739Z,51.216003
2023-02-16T02:21:33.738Z,51.215992
2023-02-16T02:22:33.724Z,51.216057
2023-02-16T02:23:33.780Z,51.216030
2023-02-16T02:24:33.737Z,51.215878
2023-02-16T02:25:33.710Z,51.216026
2023-02-16T02:26:33.724Z,51.216118
2023-02-16T02:27:33.777Z,51.216122
2023-02-16T02:28:33.686Z,51.216022
2023-02-16T02:29:33.689Z,51.216034
2023-02-16T02:30:33.726Z,51.215935
2023-02-16T02:31:33.787Z,51.215881
2023-02-16T02:32:33.649Z,51.215977
2023-02-16T02:33:33.668Z,51.215794
2023-02-16T02:34:33.647Z,51.215862
2023-02-16T02:35:33.669Z,51.215996
2023-02-16T02:36:33.641Z,51.215908
2023-02-16T02:37:33.624Z,51.216030
2023-02-16T02:38:33.615Z,51.215916
2023-02-16T02:39:33.634Z,51.215961
2023-02-16T02:40:33.621Z,51.216045
2023-02-16T02:41:33.610Z,51.216099
2023-02-16T02:42:33.609Z,51.216087
2023-02-16T02:43:33.700Z,51.216049
2023-02-16T02:44:33.620Z,51.216061
2023-02-16T02:45:33.583Z,51.216095
2023-02-16T02:46:33.592Z,51.216022
2023-02-16T02:47:33.582Z,51.215866
2023-02-16T02:48:33.566Z,51.215759
2023-02-16T02:49:33.554Z,51.215813
2023-02-16T02:50:33.544Z,51.215908
2023-02-16T02:51:33.551Z,51.215996
2023-02-16T02:52:33.540Z,51.216022
2023-02-16T02:53:33.540Z,51.216038
2023-02-16T02:54:33.530Z,51.215942
2023-02-16T02:55:33.539Z,51.215900
2023-02-16T02:56:33.521Z,51.215900
2023-02-16T02:57:33.495Z,51.215836
2023-02-16T02:58:33.516Z,51.215836
2023-02-16T02:59:33.604Z,51.215809
2023-02-16T03:00:33.602Z,51.215847
2023-02-16T03:01:33.486Z,51.215843
2023-02-16T03:02:33.488Z,51.215977
2023-02-16T03:03:33.480Z,51.216057
2023-02-16T03:04:33.552Z,51.216011
2023-02-16T03:05:33.471Z,51.216042
2023-02-16T03:06:33.458Z,51.216042
2023-02-16T03:07:33.446Z,51.216011
2023-02-16T03:08:33.435Z,51.215771
2023-02-16T03:09:33.424Z,51.215633
2023-02-16T03:10:33.419Z,51.215748
2023-02-16T03:11:33.423Z,51.216034
2023-02-16T03:12:33.404Z,51.216114
2023-02-16T03:13:33.406Z,51.216125
2023-02-16T03:14:33.404Z,51.216026
2023-02-16T03:15:33.396Z,51.216129
2023-02-16T03:16:33.480Z,51.216183
2023-02-16T03:17:33.391Z,51.216213
2023-02-16T03:18:33.373Z,51.216129
2023-02-16T03:19:33.363Z,51.216080
2023-02-16T03:20:33.342Z,51.216148
2023-02-16T03:21:33.369Z,51.216137
2023-02-16T03:22:33.342Z,51.216053
2023-02-16T03:23:33.339Z,51.216011
2023-02-16T03:24:33.321Z,51.215942
2023-02-16T03:25:34.313Z,51.215961
2023-02-16T03:26:33.310Z,51.216118
2023-02-16T03:27:33.328Z,51.216152
2023-02-16T03:28:33.298Z,51.216156
2023-02-16T03:29:33.296Z,51.216179
2023-02-16T03:30:33.396Z,51.216209
2023-02-16T03:31:33.358Z,51.216171
2023-02-16T03:32:33.288Z,51.216179
2023-02-16T03:33:33.259Z,51.216118
2023-02-16T03:34:33.258Z,51.216232
2023-02-16T03:35:33.246Z,51.216190
2023-02-16T03:36:33.250Z,51.216125
2023-02-16T03:37:33.255Z,51.216167
2023-02-16T03:38:33.244Z,51.216103
2023-02-16T03:39:33.223Z,51.216042
2023-02-16T03:40:33.254Z,51.216038
2023-02-16T03:41:33.209Z,51.216064
2023-02-16T03:42:33.223Z,51.216003
2023-02-16T03:43:33.185Z,51.216068
2023-02-16T03:44:33.186Z,51.216015
2023-02-16T03:45:33.231Z,51.216034
2023-02-16T03:46:34.177Z,51.216137
2023-02-16T03:47:33.176Z,51.216156
2023-02-16T03:48:33.167Z,51.216145
2023-02-16T03:49:33.162Z,51.216087
2023-02-16T03:50:33.170Z,51.216064
2023-02-16T03:51:33.138Z,51.216049
2023-02-16T03:52:33.147Z,51.215942
2023-02-16T03:53:33.139Z,51.215981
2023-02-16T03:54:33.133Z,51.216152
2023-02-16T03:55:33.140Z,51.216125
2023-02-16T03:56:33.120Z,51.215935
2023-02-16T03:57:33.146Z,51.215927
2023-02-16T03:58:34.102Z,51.215797
2023-02-16T03:59:33.106Z,51.215961
2023-02-16T04:00:33.101Z,51.216129
2023-02-16T04:01:33.085Z,51.215912
2023-02-16T04:02:33.099Z,51.215836
2023-02-16T04:03:34.082Z,51.215855
2023-02-16T04:04:33.092Z,51.215961
2023-02-16T04:05:33.068Z,51.215942
2023-02-16T04:06:33.064Z,51.215706
2023-02-16T04:07:33.056Z,51.215706
2023-02-16T04:08:33.051Z,51.216198
2023-02-16T04:09:33.032Z,51.216179
2023-02-16T04:10:33.031Z,51.216148
2023-02-16T04:11:33.031Z,51.216145
2023-02-16T04:12:33.015Z,51.216209
2023-02-16T04:13:33.027Z,51.216072
2023-02-16T04:14:33.044Z,51.216354
2023-02-16T04:15:33.004Z,51.216328
2023-02-16T04:16:33.069Z,51.216400
2023-02-16T04:17:32.983Z,51.216400
2023-02-16T04:18:32.991Z,51.216099
2023-02-16T04:19:33.034Z,51.216125
2023-02-16T04:20:32.979Z,51.216141
2023-02-16T04:21:32.947Z,51.215981
2023-02-16T04:22:32.939Z,51.216015
2023-02-16T04:23:32.941Z,51.216118
2023-02-16T04:24:32.931Z,51.216091
2023-02-16T04:25:32.939Z,51.216167
2023-02-16T04:26:32.914Z,51.216114
2023-02-16T04:27:32.928Z,51.216137
2023-02-16T04:28:32.913Z,51.216015
2023-02-16T04:29:32.899Z,51.216030
2023-02-16T04:30:33.112Z,51.215923
2023-02-16T04:31:32.996Z,51.216103
2023-02-16T04:32:32.889Z,51.216171
2023-02-16T04:33:32.884Z,51.216171
2023-02-16T04:34:32.863Z,51.216225
2023-02-16T04:35:32.861Z,51.216213
2023-02-16T04:36:32.859Z,51.216099
2023-02-16T04:37:32.835Z,51.216141
2023-02-16T04:38:32.855Z,51.215996
2023-02-16T04:39:32.827Z,51.215755
2023-02-16T04:40:32.831Z,51.215862
2023-02-16T04:41:32.832Z,51.216103
2023-02-16T04:42:32.816Z,51.216152
2023-02-16T04:43:32.805Z,51.216274
2023-02-16T04:44:32.806Z,51.216042
2023-02-16T04:45:32.830Z,51.215809
2023-02-16T04:46:32.792Z,51.215889
2023-02-16T04:47:32.767Z,51.216110
2023-02-16T04:48:33.776Z,51.216015
2023-02-16T04:49:32.790Z,51.215981
2023-02-16T04:50:32.770Z,51.216106
2023-02-16T04:51:32.761Z,51.216087
2023-02-16T04:52:32.743Z,51.216080
2023-02-16T04:53:32.746Z,51.216171
2023-02-16T04:54:32.756Z,51.216030
2023-02-16T04:55:32.737Z,51.216076
2023-02-16T04:56:32.730Z,51.216129
2023-02-16T04:57:32.731Z,51.216091
2023-02-16T04:58:32.710Z,51.216011
2023-02-16T04:59:32.708Z,51.216099
2023-02-16T05:00:34.550Z,51.216080
2023-02-16T05:01:32.764Z,51.216038
2023-02-16T05:02:32.680Z,51.215981
2023-02-16T05:03:32.689Z,51.215904
2023-02-16T05:04:32.692Z,51.216049
2023-02-16T05:05:32.689Z,51.215996
2023-02-16T05:06:32.657Z,51.216049
2023-02-16T05:07:32.653Z,51.216129
2023-02-16T05:08:32.645Z,51.216076
2023-02-16T05:09:32.638Z,51.216156
2023-02-16T05:10:32.638Z,51.216145
2023-02-16T05:11:32.633Z,51.216084
2023-02-16T05:12:32.617Z,51.215992
2023-02-16T05:13:32.601Z,51.216057
2023-02-16T05:14:32.605Z,51.216106
2023-02-16T05:15:32.612Z,51.216064
2023-02-16T05:16:32.599Z,51.216019
2023-02-16T05:17:32.579Z,51.216072
2023-02-16T05:18:32.751Z,51.216114
2023-02-16T05:19:32.569Z,51.216114
2023-02-16T05:20:32.566Z,51.216137
2023-02-16T05:21:32.616Z,51.216114
2023-02-16T05:22:32.558Z,51.216129
2023-02-16T05:23:32.546Z,51.216156
2023-02-16T05:24:32.530Z,51.216091
2023-02-16T05:25:32.538Z,51.216072
2023-02-16T05:26:32.528Z,51.216061
2023-02-16T05:27:32.530Z,51.216118
2023-02-16T05:28:32.545Z,51.216084
2023-02-16T05:29:32.504Z,51.216076
2023-02-16T05:30:32.623Z,51.216091
2023-02-16T05:31:32.622Z,51.216030
2023-02-16T05:32:32.497Z,51.216057
2023-02-16T05:33:32.488Z,51.216038
2023-02-16T05:34:32.484Z,51.216087
2023-02-16T05:35:32.486Z,51.216034
2023-02-16T05:36:32.487Z,51.216106
2023-02-16T05:37:32.464Z,51.216137
2023-02-16T05:38:32.456Z,51.216194
2023-02-16T05:39:32.461Z,51.216213
2023-02-16T05:40:32.459Z,51.216148
2023-02-16T05:41:32.452Z,51.216206
2023-02-16T05:42:32.438Z,51.216110
2023-02-16T05:43:32.421Z,51.216259
2023-02-16T05:44:32.435Z,51.216022
2023-02-16T05:45:32.409Z,51.216194
2023-02-16T05:46:32.461Z,51.216061
2023-02-16T05:47:32.404Z,51.216038
2023-02-16T05:48:32.401Z,51.216183
2023-02-16T05:49:32.384Z,51.216064
2023-02-16T05:50:32.398Z,51.216099
2023-02-16T05:51:32.388Z,51.216053
2023-02-16T05:52:32.359Z,51.215992
2023-02-16T05:53:32.397Z,51.216160
2023-02-16T05:54:32.360Z,51.216118
2023-02-16T05:55:32.343Z,51.216164
2023-02-16T05:56:32.341Z,51.216057
2023-02-16T05:57:32.345Z,51.215992
2023-02-16T05:58:32.353Z,51.216084
2023-02-16T05:59:32.330Z,51.216022
2023-02-16T06:00:32.321Z,51.216042
2023-02-16T06:01:32.317Z,51.216030
2023-02-16T06:02:32.364Z,51.215954
2023-02-16T06:03:32.388Z,51.215916
2023-02-16T06:04:32.293Z,51.215836
2023-02-16T06:05:32.292Z,51.215954
2023-02-16T06:06:32.278Z,51.216084
2023-02-16T06:07:32.273Z,51.215935
2023-02-16T06:08:32.274Z,51.216026
2023-02-16T06:09:32.278Z,51.216167
2023-02-16T06:10:32.264Z,51.216072
2023-02-16T06:11:32.249Z,51.216026
2023-02-16T06:12:32.233Z,51.216057
2023-02-16T06:13:32.321Z,51.216183
2023-02-16T06:14:32.253Z,51.216061
2023-02-16T06:15:32.226Z,51.215908
2023-02-16T06:16:32.224Z,51.215771
2023-02-16T06:17:32.217Z,51.215836
2023-02-16T06:18:32.192Z,51.215919
2023-02-16T06:19:33.215Z,51.216084
2023-02-16T06:20:32.225Z,51.216202
2023-02-16T06:21:32.185Z,51.215866
2023-02-16T06:22:32.169Z,51.215981
2023-02-16T06:23:32.178Z,51.215767
2023-02-16T06:24:32.166Z,51.215542
2023-02-16T06:25:32.170Z,51.215511
2023-02-16T06:26:33.159Z,51.215675
2023-02-16T06:27:32.144Z,51.215714
2023-02-16T06:28:32.146Z,51.215515
2023-02-16T06:29:32.142Z,51.215778
2023-02-16T06:30:32.205Z,51.215687
2023-02-16T06:31:33.912Z,51.215836
2023-02-16T06:32:32.156Z,51.215691
2023-02-16T06:33:32.108Z,51.215481
2023-02-16T06:34:32.096Z,51.215641
2023-02-16T06:35:32.100Z,51.215637
2023-02-16T06:36:32.085Z,51.215637
2023-02-16T06:37:32.081Z,51.215984
2023-02-16T06:38:32.066Z,51.215851
2023-02-16T06:39:32.106Z,51.215992
2023-02-16T06:40:32.078Z,51.215889
2023-02-16T06:41:32.262Z,51.215923
2023-02-16T06:42:32.055Z,51.216068
2023-02-16T06:43:32.036Z,51.216324
2023-02-16T06:44:32.043Z,51.216465
2023-02-16T06:45:32.043Z,51.215847
2023-02-16T06:46:32.099Z,51.216015
2023-02-16T06:47:32.024Z,51.216286
2023-02-16T06:48:31.999Z,51.216152
2023-02-16T06:49:32.080Z,51.216206
2023-02-16T06:50:31.998Z,51.216084
2023-02-16T06:51:31.989Z,51.216045
2023-02-16T06:52:32.000Z,51.216049
2023-02-16T06:53:31.967Z,51.216137
2023-02-16T06:54:31.961Z,51.216099
2023-02-16T06:55:31.963Z,51.216118
2023-02-16T06:56:31.959Z,51.216095
2023-02-16T06:57:31.956Z,51.216007
2023-02-16T06:58:31.945Z,51.216045
2023-02-16T06:59:31.968Z,51.215977
2023-02-16T07:00:31.972Z,51.215954
2023-02-16T07:01:31.923Z,51.216007
2023-02-16T07:02:31.919Z,51.215954
2023-02-16T07:03:31.949Z,51.216057
2023-02-16T07:04:31.908Z,51.215961
2023-02-16T07:05:31.904Z,51.216125
2023-02-16T07:06:31.915Z,51.216290
2023-02-16T07:07:31.899Z,51.216141
2023-02-16T07:08:31.881Z,51.216084
2023-02-16T07:09:31.870Z,51.216068
2023-02-16T07:10:43.917Z,51.216190
2023-02-16T07:11:33.851Z,51.216129
2023-02-16T07:12:31.838Z,51.216042
2023-02-16T07:13:32.419Z,51.216026
2023-02-16T07:14:31.878Z,51.215996
2023-02-16T07:15:31.821Z,51.215816
2023-02-16T07:16:31.865Z,51.215900
2023-02-16T07:17:31.829Z,51.216022
2023-02-16T07:18:31.817Z,51.215916
2023-02-16T07:19:31.827Z,51.215969
2023-02-16T07:20:31.838Z,51.215935
2023-02-16T07:21:31.791Z,51.215870
2023-02-16T07:22:31.782Z,51.216095
2023-02-16T07:23:31.778Z,51.216087
2023-02-16T07:24:31.802Z,51.216106
2023-02-16T07:25:31.776Z,51.216049
2023-02-16T07:26:31.775Z,51.216328
2023-02-16T07:27:31.765Z,51.216129
2023-02-16T07:28:31.745Z,51.215965
2023-02-16T07:29:32.770Z,51.215988
2023-02-16T07:30:31.807Z,51.215824
2023-02-16T07:31:31.899Z,51.215862
2023-02-16T07:32:31.734Z,51.215946
2023-02-16T07:33:31.725Z,51.216003
2023-02-16T07:34:31.729Z,51.216118
2023-02-16T07:35:31.710Z,51.216022
2023-02-16T07:36:31.722Z,51.216145
2023-02-16T07:37:31.697Z,51.216187
2023-02-16T07:38:31.688Z,51.216038
2023-02-16T07:39:31.700Z,51.215931
2023-02-16T07:40:31.675Z,51.215847
2023-02-16T07:41:31.691Z,51.215874
2023-02-16T07:42:31.656Z,51.216038
2023-02-16T07:43:31.656Z,51.216179
2023-02-16T07:44:31.643Z,51.216263
2023-02-16T07:45:31.661Z,51.216343
2023-02-16T07:46:33.308Z,51.216316
2023-02-16T07:47:32.625Z,51.216213
2023-02-16T07:48:31.621Z,51.216244
2023-02-16T07:49:31.623Z,51.216213
2023-02-16T07:50:31.590Z,51.216190
2023-02-16T07:51:32.623Z,51.216286
2023-02-16T07:52:31.585Z,51.216187
2023-02-16T07:53:31.588Z,51.216293
2023-02-16T07:54:31.574Z,51.216194
2023-02-16T07:55:31.581Z,51.216293
2023-02-16T07:56:31.621Z,51.216599
2023-02-16T07:57:31.587Z,51.216381
2023-02-16T07:58:31.541Z,51.216320
2023-02-16T07:59:32.549Z,51.216286
2023-02-16T08:00:31.538Z,51.216461
2023-02-16T08:01:31.580Z,51.216278
2023-02-16T08:02:31.670Z,51.216347
2023-02-16T08:03:31.519Z,51.216084
2023-02-16T08:04:31.508Z,51.216156
2023-02-16T08:05:31.508Z,51.215973
2023-02-16T08:06:31.490Z,51.216000
2023-02-16T08:07:31.484Z,51.216232
2023-02-16T08:08:31.509Z,51.216095
2023-02-16T08:09:32.495Z,51.216110
2023-02-16T08:10:31.470Z,51.216106
2023-02-16T08:11:31.727Z,51.216095
2023-02-16T08:12:31.461Z,51.216118
2023-02-16T08:13:31.476Z,51.216171
2023-02-16T08:14:31.449Z,51.216118
2023-02-16T08:15:31.444Z,51.216057
2023-02-16T08:16:31.505Z,51.215767
2023-02-16T08:17:31.425Z,51.216103
2023-02-16T08:18:31.424Z,51.216290
2023-02-16T08:19:31.435Z,51.216293
2023-02-16T08:20:48.146Z,51.216148
2023-02-16T08:21:32.409Z,51.216141
2023-02-16T08:22:32.431Z,51.216187
2023-02-16T08:23:31.601Z,51.216080
2023-02-16T08:24:31.408Z,51.216103
2023-02-16T08:25:31.373Z,51.216080
2023-02-16T08:26:31.405Z,51.216129
2023-02-16T08:27:31.373Z,51.216076
2023-02-16T08:28:31.347Z,51.216118
2023-02-16T08:29:31.368Z,51.216091
2023-02-16T08:30:31.409Z,51.216160
2023-02-16T08:31:31.506Z,51.216152
2023-02-16T08:32:31.422Z,51.216076
2023-02-16T08:33:31.329Z,51.216015
2023-02-16T08:34:31.334Z,51.215977
2023-02-16T08:35:31.312Z,51.215897
2023-02-16T08:36:31.321Z,51.215984
2023-02-16T08:37:31.326Z,51.216156
2023-02-16T08:38:31.288Z,51.216084
2023-02-16T08:39:31.295Z,51.216057
2023-02-16T08:40:31.276Z,51.216137
2023-02-16T08:41:31.286Z,51.216057
2023-02-16T08:42:31.277Z,51.216072
2023-02-16T08:43:31.265Z,51.216038
2023-02-16T08:44:31.312Z,51.216095
2023-02-16T08:45:31.283Z,51.216049
2023-02-16T08:46:31.237Z,51.216038
2023-02-16T08:47:31.270Z,51.216064
2023-02-16T08:48:31.251Z,51.216076
2023-02-16T08:49:31.226Z,51.216106
2023-02-16T08:50:31.207Z,51.215973
2023-02-16T08:51:31.305Z,51.216030
2023-02-16T08:52:31.224Z,51.216061
2023-02-16T08:53:31.196Z,51.216114
2023-02-16T08:54:31.175Z,51.216022
2023-02-16T08:55:31.185Z,51.216026
2023-02-16T08:56:31.159Z,51.216164
2023-02-16T08:57:31.166Z,51.216202
2023-02-16T08:58:31.188Z,51.216141
2023-02-16T08:59:31.162Z,51.215946
2023-02-16T09:00:32.148Z,51.215931
2023-02-16T09:01:31.233Z,51.215813
2023-02-16T09:02:31.169Z,51.216007
2023-02-16T09:03:31.150Z,51.216057
2023-02-16T09:04:31.121Z,51.216099
2023-02-16T09:05:31.139Z,51.215984
2023-02-16T09:06:31.111Z,51.216080
2023-02-16T09:07:31.110Z,51.215973
2023-02-16T09:08:31.119Z,51.215965
2023-02-16T09:09:31.077Z,51.216022
2023-02-16T09:10:31.083Z,51.216110
2023-02-16T09:11:31.074Z,51.216068
2023-02-16T09:12:32.073Z,51.216141
2023-02-16T09:13:31.057Z,51.216084
2023-02-16T09:14:31.057Z,51.216103
2023-02-16T09:15:31.037Z,51.216087
2023-02-16T09:16:31.055Z,51.216156
2023-02-16T09:17:31.027Z,51.216148
2023-02-16T09:18:31.033Z,51.216282
2023-02-16T09:19:31.017Z,51.216061
2023-02-16T09:20:31.001Z,51.216125
2023-02-16T09:21:31.093Z,51.216167
2023-02-16T09:22:30.998Z,51.216087
2023-02-16T09:23:30.992Z,51.215973
2023-02-16T09:24:30.992Z,51.215912
2023-02-16T09:25:30.978Z,51.216064
2023-02-16T09:26:30.965Z,51.216209
2023-02-16T09:27:30.968Z,51.216187
2023-02-16T09:28:30.958Z,51.216129
2023-02-16T09:29:30.970Z,51.216084
2023-02-16T09:30:31.026Z,51.216248
2023-02-16T09:31:31.204Z,51.216206
2023-02-16T09:32:30.949Z,51.216206
2023-02-16T09:33:30.913Z,51.216103
2023-02-16T09:34:30.982Z,51.216110
2023-02-16T09:35:30.913Z,51.216091
2023-02-16T09:36:30.885Z,51.216133
2023-02-16T09:37:30.895Z,51.216156
2023-02-16T09:38:30.889Z,51.216274
2023-02-16T09:39:30.903Z,51.216297
2023-02-16T09:40:30.879Z,51.216228
2023-02-16T09:41:30.872Z,51.216148
2023-02-16T09:42:30.875Z,51.216198
2023-02-16T09:43:30.868Z,51.216141
2023-02-16T09:44:30.869Z,51.216164
2023-02-16T09:45:30.852Z,51.216225
2023-02-16T09:46:30.859Z,51.216045
2023-02-16T09:47:30.849Z,51.216190
2023-02-16T09:48:30.889Z,51.216225
2023-02-16T09:49:30.841Z,51.216217
2023-02-16T09:50:52.600Z,51.216217
2023-02-16T09:51:34.674Z,51.216148
2023-02-16T09:52:31.805Z,51.216213
2023-02-16T09:53:30.793Z,51.216225
2023-02-16T09:54:30.789Z,51.216221
2023-02-16T09:55:30.793Z,51.216228
2023-02-16T09:56:30.764Z,51.216255
2023-02-16T09:57:30.764Z,51.216106
2023-02-16T09:58:30.755Z,51.216118
2023-02-16T09:59:30.754Z,51.216209
2023-02-16T10:00:30.770Z,51.216080
2023-02-16T10:01:30.800Z,51.215996
2023-02-16T10:02:30.789Z,51.216187
2023-02-16T10:03:30.722Z,51.216267
2023-02-16T10:04:30.716Z,51.216114
2023-02-16T10:05:30.749Z,51.216274
2023-02-16T10:06:30.709Z,51.216125
2023-02-16T10:07:30.707Z,51.216148
2023-02-16T10:08:30.700Z,51.216015
2023-02-16T10:09:30.690Z,51.216228
2023-02-16T10:10:30.685Z,51.216141
2023-02-16T10:11:30.708Z,51.216141
2023-02-16T10:12:30.679Z,51.216125
2023-02-16T10:13:30.657Z,51.216164
2023-02-16T10:14:30.654Z,51.216125
2023-02-16T10:15:30.688Z,51.216164
2023-02-16T10:16:30.634Z,51.216167
2023-02-16T10:17:30.679Z,51.216114
2023-02-16T10:18:30.633Z,51.216087
2023-02-16T10:19:30.624Z,51.216167
2023-02-16T10:20:30.652Z,51.216160
2023-02-16T10:21:30.609Z,51.216148
2023-02-16T10:22:30.604Z,51.216125
2023-02-16T10:23:30.613Z,51.216019
2023-02-16T10:24:30.641Z,51.216057
2023-02-16T10:25:30.585Z,51.216179
2023-02-16T10:26:30.685Z,51.216064
2023-02-16T10:27:30.732Z,51.216095
2023-02-16T10:28:30.587Z,51.216156
2023-02-16T10:29:30.574Z,51.216110
2023-02-16T10:30:30.584Z,51.216099
2023-02-16T10:31:30.637Z,51.216061
2023-02-16T10:32:30.542Z,51.216026
2023-02-16T10:33:30.545Z,51.216122
2023-02-16T10:34:30.543Z,51.216122
2023-02-16T10:35:30.529Z,51.216133
2023-02-16T10:36:30.527Z,51.216160
2023-02-16T10:37:30.517Z,51.216057
2023-02-16T10:38:30.505Z,51.216106
2023-02-16T10:39:30.503Z,51.216137
2023-02-16T10:40:30.500Z,51.216236
2023-02-16T10:41:30.501Z,51.216267
2023-02-16T10:42:30.482Z,51.216080
2023-02-16T10:43:30.502Z,51.216007
2023-02-16T10:44:30.491Z,51.215977
2023-02-16T10:45:30.465Z,51.216015
2023-02-16T10:46:30.522Z,51.215992
2023-02-16T10:47:30.479Z,51.216080
2023-02-16T10:48:30.441Z,51.216118
2023-02-16T10:49:30.448Z,51.216175
2023-02-16T10:50:30.458Z,51.216194
2023-02-16T10:51:30.431Z,51.216129
2023-02-16T10:52:30.424Z,51.216087
2023-02-16T10:53:30.408Z,51.216049
2023-02-16T10:54:30.407Z,51.216103
2023-02-16T10:55:30.408Z,51.215893
2023-02-16T10:56:30.391Z,51.215939
2023-02-16T10:57:30.376Z,51.215988
2023-02-16T10:58:30.392Z,51.216038
2023-02-16T10:59:30.376Z,51.216053
2023-02-16T11:00:30.381Z,51.216103
2023-02-16T11:01:30.418Z,51.216091
2023-02-16T11:02:30.357Z,51.215942
2023-02-16T11:03:30.353Z,51.215897
2023-02-16T11:04:30.336Z,51.215805
2023-02-16T11:05:30.335Z,51.215755
2023-02-16T11:06:30.311Z,51.215897
2023-02-16T11:07:30.328Z,51.215988
2023-02-16T11:08:30.574Z,51.216011
2023-02-16T11:09:30.301Z,51.216034
2023-02-16T11:10:30.285Z,51.216297
2023-02-16T11:11:30.287Z,51.216297
2023-02-16T11:12:30.293Z,51.216393
2023-02-16T11:13:30.261Z,51.216305
2023-02-16T11:14:30.258Z,51.216202
2023-02-16T11:15:30.261Z,51.215889
2023-02-16T11:16:30.246Z,51.215961
2023-02-16T11:17:30.268Z,51.216015
2023-02-16T11:18:30.250Z,51.216053
2023-02-16T11:19:30.226Z,51.216091
2023-02-16T11:20:30.235Z,51.216251
2023-02-16T11:21:30.218Z,51.216389
2023-02-16T11:22:30.251Z,51.216331
2023-02-16T11:23:30.214Z,51.216354
2023-02-16T11:24:30.191Z,51.216331